M I D A S
Marine Information and Data Acquisition System
Tripno 684 of the Zeeleeuw from 2004-04-19 06:35:39 to 2004-04-19 14:55:05
Back to CruiseResearch ActivitiesStationsMapUnderway DataData graphs

EquipmentUnitsComments
TimeDGPSUTC
LatitudeDGPSDM.mWGS84
LongitudeDGPSDM.mWGS84
SpeedMeteo Stationm/sRelative wind speed
DirectionMeteo StationdegRelative wind direction
TemperatureMeteo Stationdeg CelciusAir temperature
PressureMeteo StationPaAtmospheric pressure
HumidityMeteo Station%Relative humidity
Missing or incorrect values are displayed as -999
Metereological data collected by the RV Zeeleeuw from 2004-04-19 06:35:39 to 2004-04-19 14:55:05
Time Latitude Longitude Speed Direction Temperature Pressure Humidity
2004-04-19 06:36 51°13.667 2°55.793 2.1 106 5.9 99060 81
2004-04-19 06:37 51°13.677 2°55.771 3 144 5.9 99060 81
2004-04-19 06:38 51°13.736 2°55.728 2.7 230 5.9 99060 81
2004-04-19 06:39 51°13.83 2°55.632 0.8 210 5.9 99060 81
2004-04-19 06:40 51°13.951 2°55.543 2.4 208 6 99060 81
2004-04-19 06:41 51°14.084 2°55.451 2.7 302 6 99070 81
2004-04-19 06:42 51°14.221 2°55.324 3.4 253 6.1 99070 81
2004-04-19 06:43 51°14.336 2°55.115 5.3 321 6 99070 80
2004-04-19 06:44 51°14.429 2°54.826 9.8 326 6 99060 81
2004-04-19 06:45 51°14.399 2°54.457 12.5 333 6 99030 80
2004-04-19 06:46 51°14.295 2°54.12 12.7 331 6 99030 81
2004-04-19 06:47 51°14.196 2°53.793 12.1 323 6 99040 81
2004-04-19 06:48 51°14.096 2°53.454 12.2 336 6 99030 81
2004-04-19 06:49 51°13.976 2°53.124 12.8 336 6 99030 81
2004-04-19 06:50 51°13.88 2°52.777 14.6 336 6 99030 81
2004-04-19 06:51 51°13.763 2°52.427 12.5 326 6 99030 81
2004-04-19 06:52 51°13.647 2°52.079 13.7 337 6 99030 81
2004-04-19 06:53 51°13.531 2°51.721 13.9 335 6 99030 82
2004-04-19 06:54 51°13.417 2°51.38 13.8 329 6.1 99030 82
2004-04-19 06:55 51°13.296 2°51.029 15.1 332 6.1 99030 82
2004-04-19 06:56 51°13.17 2°50.667 14.4 336 6 99030 82
2004-04-19 06:57 51°13.046 2°50.327 14.9 330 6 99040 82
2004-04-19 06:58 51°12.923 2°49.986 14.2 332 6 99030 82
2004-04-19 06:59 51°12.795 2°49.625 13 332 6 99030 83
2004-04-19 07:00 51°12.672 2°49.282 14.6 330 6 99030 83
2004-04-19 07:01 51°12.55 2°48.937 13.7 337 6 99030 83
2004-04-19 07:02 51°12.424 2°48.58 13.2 334 6 99020 82
2004-04-19 07:03 51°12.297 2°48.223 11.9 338 6 99030 83
2004-04-19 07:04 51°12.174 2°47.872 14 332 6.1 99020 83
2004-04-19 07:05 51°12.054 2°47.527 12.7 329 6.1 99030 83
2004-04-19 07:06 51°11.939 2°47.177 12.8 325 6.1 99030 83
2004-04-19 07:07 51°11.836 2°46.809 13.6 330 6.1 99040 83
2004-04-19 07:08 51°11.735 2°46.439 12.3 328 6.1 99030 83
2004-04-19 07:09 51°11.683 2°46.031 12 327 6.1 99040 83
2004-04-19 07:10 51°11.626 2°45.636 13 324 6.1 99040 83
2004-04-19 07:11 51°11.569 2°45.24 14.1 317 6.1 99040 83
2004-04-19 07:12 51°11.515 2°44.858 13.8 323 6.1 99040 82
2004-04-19 07:13 51°11.458 2°44.465 13.8 324 6.1 99030 82
2004-04-19 07:14 51°11.4 2°44.073 13.8 322 6.1 99030 82
2004-04-19 07:15 51°11.344 2°43.682 15.5 319 6.1 99030 82
2004-04-19 07:16 51°11.29 2°43.292 12.9 321 6.1 99050 81
2004-04-19 07:17 51°11.234 2°42.891 13.2 332 6.2 99050 82
2004-04-19 07:18 51°11.183 2°42.545 11.4 320 6.1 99040 80
2004-04-19 07:19 51°11.143 2°42.331 8.9 299 6.1 99040 80
2004-04-19 07:20 51°11.115 2°42.177 8.6 313 6.2 99050 81
2004-04-19 07:21 51°11.095 2°42.092 6.9 289 6.2 99060 81
2004-04-19 07:22 51°11.094 2°42.082 10.1 265 6.2 99070 81
2004-04-19 07:23 51°11.092 2°42.067 9.1 271 6.2 99080 80
2004-04-19 07:24 51°11.092 2°42.045 9 260 6.2 99080 80
2004-04-19 07:25 51°11.094 2°42.02 6.2 253 6.1 99090 80
2004-04-19 07:26 51°11.097 2°41.991 8 260 6.1 99080 80
2004-04-19 07:27 51°11.098 2°41.96 9.2 271 6.1 99080 80
2004-04-19 07:28 51°11.099 2°41.927 10.8 277 6.1 99080 80
2004-04-19 07:29 51°11.1 2°41.892 10.6 267 6.1 99070 79
2004-04-19 07:30 51°11.1 2°41.849 9.1 287 6.1 99070 79
2004-04-19 07:31 51°11.064 2°41.653 12.9 318 6.2 99040 80
2004-04-19 07:32 51°10.994 2°41.298 14 325 6.2 99040 80
2004-04-19 07:33 51°10.933 2°40.931 13.9 331 6.2 99030 80
2004-04-19 07:34 51°10.869 2°40.553 14.5 327 6.2 99040 79
2004-04-19 07:35 51°10.804 2°40.168 14.5 330 6.2 99040 80
2004-04-19 07:36 51°10.743 2°39.804 13 328 6.2 99030 80
2004-04-19 07:37 51°10.664 2°39.422 14.4 330 6.3 99030 80
2004-04-19 07:38 51°10.584 2°39.053 15.2 336 6.3 99030 80
2004-04-19 07:39 51°10.504 2°38.683 13.4 332 6.2 99030 79
2004-04-19 07:40 51°10.424 2°38.312 14.9 336 6.3 99030 80
2004-04-19 07:41 51°10.347 2°37.952 15.3 339 6.2 99020 80
2004-04-19 07:42 51°10.266 2°37.579 17 330 6.2 99020 80
2004-04-19 07:43 51°10.185 2°37.198 14.6 336 6.2 99030 80
2004-04-19 07:44 51°10.116 2°36.815 16.9 334 6.2 99020 80
2004-04-19 07:45 51°10.05 2°36.444 14.9 333 6.1 99030 80
2004-04-19 07:46 51°10.068 2°36.06 12 303 6.2 99040 81
2004-04-19 07:47 51°10.233 2°35.835 6.2 269 6.2 99070 81
2004-04-19 07:48 51°10.443 2°35.8 2.4 250 6.1 99090 81
2004-04-19 07:49 51°10.644 2°35.892 1.7 126 6 99090 81
2004-04-19 07:50 51°10.826 2°36.048 1.9 151 6.1 99100 82
2004-04-19 07:51 51°11.017 2°36.206 1.4 118 6.1 99090 81
2004-04-19 07:52 51°11.202 2°36.355 2.1 143 6.2 99090 82
2004-04-19 07:53 51°11.392 2°36.505 2.6 169 6.3 99090 82
2004-04-19 07:54 51°11.581 2°36.656 2.2 157 6.3 99100 82
2004-04-19 07:55 51°11.76 2°36.844 3.2 159 6.2 99100 82
2004-04-19 07:56 51°11.93 2°37.033 2.6 161 6.1 99100 81
2004-04-19 07:57 51°12.107 2°37.227 3.4 135 6.1 99100 82
2004-04-19 07:58 51°12.276 2°37.409 4.3 133 6.1 99100 82
2004-04-19 07:59 51°12.451 2°37.606 2.7 122 6.2 99110 82
2004-04-19 08:00 51°12.632 2°37.788 3.1 151 6.1 99110 82
2004-04-19 08:01 51°12.806 2°37.956 2.8 130 6.1 99110 82
2004-04-19 08:02 51°13.001 2°38.109 2.3 161 6.1 99110 82
2004-04-19 08:03 51°13.19 2°38.246 2.7 145 6.1 99110 82
2004-04-19 08:04 51°13.378 2°38.385 2.1 143 6.1 99110 82
2004-04-19 08:05 51°13.575 2°38.534 3.2 164 6.1 99110 82
2004-04-19 08:06 51°13.761 2°38.67 0.6 250 6.1 99110 82
2004-04-19 08:07 51°13.98 2°38.71 3.4 247 6.2 99110 83
2004-04-19 08:08 51°14.19 2°38.61 8.3 270 6.2 99110 83
2004-04-19 08:09 51°14.387 2°38.45 8 279 6.2 99110 83
2004-04-19 08:10 51°14.589 2°38.292 6.7 277 6.3 99110 83
2004-04-19 08:11 51°14.78 2°38.146 9.8 270 6.3 99100 83
2004-04-19 08:12 51°14.985 2°37.995 7.9 269 6.4 99110 83
2004-04-19 08:13 51°15.174 2°37.844 8.1 287 6.4 99120 83
2004-04-19 08:14 51°15.37 2°37.657 8.9 276 6.4 99120 83
2004-04-19 08:15 51°15.565 2°37.477 6.5 286 6.4 99110 83
2004-04-19 08:16 51°15.771 2°37.294 9.8 289 6.5 99110 83
2004-04-19 08:17 51°15.965 2°37.125 7.7 279 6.6 99110 83
2004-04-19 08:18 51°16.171 2°36.938 8.2 276 6.5 99100 82
2004-04-19 08:19 51°16.37 2°36.811 5.9 258 6.6 99110 83
2004-04-19 08:20 51°16.539 2°36.793 6.3 251 6.6 99120 82
2004-04-19 08:21 51°16.61 2°36.761 5 191 6.6 99120 83
2004-04-19 08:22 51°16.608 2°36.743 8.6 161 6.7 99120 81
2004-04-19 08:23 51°16.601 2°36.732 7.4 131 6.7 99120 82
2004-04-19 08:24 51°16.591 2°36.724 8.7 125 6.8 99110 83
2004-04-19 08:25 51°16.579 2°36.714 11.8 95 6.9 99110 83
2004-04-19 08:26 51°16.565 2°36.704 11.1 99 6.8 99120 83
2004-04-19 08:27 51°16.55 2°36.694 8.2 109 6.8 99110 83
2004-04-19 08:28 51°16.535 2°36.685 9 102 6.7 99110 82
2004-04-19 08:29 51°16.522 2°36.674 8.8 94 6.6 99110 82
2004-04-19 08:30 51°16.506 2°36.665 9.1 96 6.6 99120 83
2004-04-19 08:31 51°16.498 2°36.735 5 171 6.7 99120 83
2004-04-19 08:32 51°16.581 2°36.685 7 278 6.8 99130 84
2004-04-19 08:33 51°16.701 2°36.487 10.6 284 6.8 99120 83
2004-04-19 08:34 51°16.838 2°36.263 7.8 283 6.8 99130 83
2004-04-19 08:35 51°16.984 2°36.041 9.1 295 6.8 99130 84
2004-04-19 08:36 51°17.158 2°35.784 9.5 296 6.8 99160 84
2004-04-19 08:37 51°17.322 2°35.53 8.2 292 6.8 99130 83
2004-04-19 08:38 51°17.486 2°35.29 9 302 6.8 99130 84
2004-04-19 08:39 51°17.672 2°35.044 9.5 308 6.8 99130 84
2004-04-19 08:40 51°17.849 2°34.806 9.5 299 6.9 99130 84
2004-04-19 08:41 51°18.025 2°34.567 9.9 303 6.9 99120 84
2004-04-19 08:42 51°18.186 2°34.277 12.7 302 6.9 99110 84
2004-04-19 08:43 51°18.327 2°33.974 11.9 308 6.9 99120 83
2004-04-19 08:44 51°18.457 2°33.673 11.5 311 6.9 99110 83
2004-04-19 08:45 51°18.594 2°33.36 12.8 42 6.9 99110 83
2004-04-19 08:46 51°18.73 2°33.056 12.2 227 7 99110 83
2004-04-19 08:47 51°18.859 2°32.747 12.1 312 7 99110 82
2004-04-19 08:48 51°18.991 2°32.43 15.2 231 7 99110 83
2004-04-19 08:49 51°19.119 2°32.12 13.9 311 7.1 99110 83
2004-04-19 08:50 51°19.244 2°31.811 12 312 7.1 99110 83
2004-04-19 08:51 51°19.373 2°31.49 12.1 312 7.1 99120 83
2004-04-19 08:52 51°19.501 2°31.175 13.2 307 7.1 99110 83
2004-04-19 08:53 51°19.619 2°30.857 11 43 7.1 99120 83
2004-04-19 08:54 51°19.721 2°30.504 11.6 313 7.2 99120 83
2004-04-19 08:55 51°19.797 2°30.242 10.2 301 7.2 99130 83
2004-04-19 08:56 51°19.884 2°30.096 4.7 253 7.2 99140 83
2004-04-19 08:57 51°19.98 2°29.976 9 282 7.2 99150 83
2004-04-19 08:58 51°20.071 2°29.864 7.3 242 7.2 99150 83
2004-04-19 08:59 51°20.061 2°29.829 8.7 204 7.2 99160 83
2004-04-19 09:00 51°20.003 2°29.766 7.7 194 7.3 99150 84
2004-04-19 09:01 51°20.007 2°29.775 3.6 179 7.5 99160 83
2004-04-19 09:02 51°20.04 2°29.839 6.6 155 7.7 99170 80
2004-04-19 09:03 51°20.042 2°29.882 8 145 7.7 99160 79
2004-04-19 09:04 51°20.038 2°29.897 8.4 129 7.6 99160 77
2004-04-19 09:05 51°20.031 2°29.906 8.6 128 7.5 99160 77
2004-04-19 09:06 51°20.023 2°29.912 9 123 7.5 99160 76
2004-04-19 09:07 51°20.014 2°29.914 8.7 117 7.5 99160 76
2004-04-19 09:08 51°20.007 2°29.913 8.1 118 7.6 99160 77
2004-04-19 09:09 51°20.001 2°29.909 8.1 117 7.6 99160 75
2004-04-19 09:10 51°19.995 2°29.904 9 104 7.6 99160 75
2004-04-19 09:11 51°19.989 2°29.9 7.5 105 7.7 99160 76
2004-04-19 09:12 51°19.982 2°29.895 8.3 100 7.6 99160 75
2004-04-19 09:13 51°19.975 2°29.889 8.7 102 7.7 99160 75
2004-04-19 09:14 51°19.956 2°29.896 9.3 101 7.6 99160 74
2004-04-19 09:15 51°19.943 2°30.001 3.4 177 7.6 99170 73
2004-04-19 09:16 51°20.052 2°30.195 1 110 7.7 99170 74
2004-04-19 09:17 51°20.163 2°30.492 2 136 7.9 99170 72
2004-04-19 09:18 51°20.263 2°30.794 2 135 7.9 99170 71
2004-04-19 09:19 51°20.362 2°31.112 1.1 149 7.9 99170 70
2004-04-19 09:20 51°20.456 2°31.423 1.5 109 8 99180 71
2004-04-19 09:21 51°20.558 2°31.736 1.3 125 8 99180 70
2004-04-19 09:22 51°20.654 2°32.037 1.6 114 8.1 99180 70
2004-04-19 09:23 51°20.744 2°32.333 2.6 111 8.2 99180 70
2004-04-19 09:24 51°20.835 2°32.634 2.5 144 8.3 99180 70
2004-04-19 09:25 51°20.931 2°32.944 1.8 144 8.3 99190 70
2004-04-19 09:26 51°21.02 2°33.257 1.6 88 8.3 99190 70
2004-04-19 09:27 51°21.111 2°33.558 0.6 115 8.4 99190 70
2004-04-19 09:28 51°21.201 2°33.858 1.4 114 8.6 99190 71
2004-04-19 09:29 51°21.289 2°34.183 1.1 107 8.7 99190 70
2004-04-19 09:30 51°21.384 2°34.49 0.9 110 8.7 99190 69
2004-04-19 09:31 51°21.474 2°34.788 0.7 63 8.7 99200 68
2004-04-19 09:32 51°21.566 2°35.109 0.4 133 8.6 99200 69
2004-04-19 09:33 51°21.664 2°35.419 0.9 98 8.6 99210 69
2004-04-19 09:34 51°21.756 2°35.727 3.5 92 8.5 99200 69
2004-04-19 09:35 51°21.846 2°36.034 3.4 85 8.3 99200 71
2004-04-19 09:36 51°21.936 2°36.366 5.4 105 8 99200 74
2004-04-19 09:37 51°22.027 2°36.675 7 106 7.8 99200 76
2004-04-19 09:38 51°22.123 2°36.989 7.8 97 7.6 99190 77
2004-04-19 09:39 51°22.216 2°37.312 6.5 87 7.4 99190 78
2004-04-19 09:40 51°22.314 2°37.626 5 98 7.3 99200 79
2004-04-19 09:41 51°22.405 2°37.945 3.7 121 7.2 99200 80
2004-04-19 09:42 51°22.499 2°38.256 6.3 110 7.1 99210 80
2004-04-19 09:43 51°22.589 2°38.577 4.6 95 7.1 99200 80
2004-04-19 09:44 51°22.684 2°38.889 5.3 107 7.2 99210 81
2004-04-19 09:45 51°22.787 2°39.21 6 107 7.2 99210 81
2004-04-19 09:46 51°22.89 2°39.518 7.1 104 7.2 99210 81
2004-04-19 09:47 51°22.991 2°39.827 5.5 92 7.1 99210 82
2004-04-19 09:48 51°23.095 2°40.125 8 106 7.1 99210 82
2004-04-19 09:49 51°23.208 2°40.445 7.7 111 7.1 99220 82
2004-04-19 09:50 51°23.316 2°40.746 6.7 96 7 99220 82
2004-04-19 09:51 51°23.424 2°41.059 6 100 7 99220 82
2004-04-19 09:52 51°23.535 2°41.363 6.5 112 7.1 99220 82
2004-04-19 09:53 51°23.643 2°41.68 5.7 108 7 99220 82
2004-04-19 09:54 51°23.751 2°41.99 6.4 109 7 99220 82
2004-04-19 09:55 51°23.854 2°42.313 5.3 97 7 99220 81
2004-04-19 09:56 51°23.967 2°42.629 5.2 108 7 99230 82
2004-04-19 09:57 51°24.075 2°42.938 4.8 100 7.1 99230 82
2004-04-19 09:58 51°24.187 2°43.253 6.3 116 7 99230 81
2004-04-19 09:59 51°24.296 2°43.571 6 113 7 99240 82
2004-04-19 10:00 51°24.4 2°43.878 6.4 124 7.1 99240 82
2004-04-19 10:01 51°24.515 2°44.194 4.8 127 7.1 99240 81
2004-04-19 10:02 51°24.625 2°44.501 5.3 110 7.1 99240 81
2004-04-19 10:03 51°24.737 2°44.817 6.6 102 7.1 99240 81
2004-04-19 10:04 51°24.843 2°45.138 4.7 96 7 99250 80
2004-04-19 10:05 51°24.958 2°45.455 5.9 116 7 99230 80
2004-04-19 10:06 51°25.072 2°45.763 6.2 118 7.2 99250 81
2004-04-19 10:07 51°25.178 2°46.069 6.5 108 7.1 99250 81
2004-04-19 10:08 51°25.295 2°46.403 5 112 7.1 99260 81
2004-04-19 10:09 51°25.395 2°46.73 7.8 106 7.2 99260 82
2004-04-19 10:10 51°25.485 2°47.07 5.8 114 7.3 99260 81
2004-04-19 10:11 51°25.578 2°47.407 5.7 105 7.3 99260 81
2004-04-19 10:12 51°25.676 2°47.746 6.4 95 7.2 99260 81
2004-04-19 10:13 51°25.767 2°48.087 7.4 101 7.2 99260 81
2004-04-19 10:14 51°25.851 2°48.315 7.1 158 7.2 99270 81
2004-04-19 10:15 51°25.932 2°48.401 7.7 210 7.2 99270 81
2004-04-19 10:16 51°25.985 2°48.427 9.6 232 7.1 99260 80
2004-04-19 10:17 51°25.984 2°48.441 9.9 231 7.1 99290 81
2004-04-19 10:18 51°25.989 2°48.456 10.8 244 7.1 99280 81
2004-04-19 10:19 51°25.994 2°48.465 7.4 256 7 99260 81
2004-04-19 10:20 51°26 2°48.474 10.3 262 7 99260 81
2004-04-19 10:21 51°26.005 2°48.486 10.3 263 7 99260 81
2004-04-19 10:22 51°26.01 2°48.5 9.5 259 7.1 99260 81
2004-04-19 10:23 51°26.016 2°48.516 10.5 261 7.1 99250 81
2004-04-19 10:24 51°26.024 2°48.531 11.2 268 7.1 99250 81
2004-04-19 10:25 51°26.029 2°48.549 11.2 265 7.2 99260 81
2004-04-19 10:26 51°26.036 2°48.566 11.2 265 7.3 99260 81
2004-04-19 10:27 51°26.043 2°48.583 11.5 262 7.5 99270 81
2004-04-19 10:28 51°26.08 2°48.56 7 257 7.5 99260 81
2004-04-19 10:29 51°26.192 2°48.612 7.3 146 7.3 99280 79
2004-04-19 10:30 51°26.227 2°48.921 8.8 101 7.3 99260 79
2004-04-19 10:31 51°26.261 2°49.291 10.3 93 7.3 99270 79
2004-04-19 10:32 51°26.3 2°49.66 9.7 100 7.4 99270 79
2004-04-19 10:33 51°26.342 2°50.036 7.3 89 7.3 99270 79
2004-04-19 10:34 51°26.39 2°50.412 9.3 103 7.4 99280 79
2004-04-19 10:35 51°26.439 2°50.787 8.9 95 7.4 99280 79
2004-04-19 10:36 51°26.492 2°51.161 6.6 94 7.3 99280 78
2004-04-19 10:37 51°26.541 2°51.538 8.9 89 7.3 99280 79
2004-04-19 10:38 51°26.593 2°51.909 7.9 101 7.4 99280 79
2004-04-19 10:39 51°26.64 2°52.282 8.3 84 7.4 99280 79
2004-04-19 10:40 51°26.682 2°52.657 7.8 91 7.4 99290 79
2004-04-19 10:41 51°26.734 2°53.039 7.6 85 7.3 99290 78
2004-04-19 10:42 51°26.791 2°53.411 6.7 89 7.3 99290 78
2004-04-19 10:43 51°26.846 2°53.775 7.8 101 7.4 99290 78
2004-04-19 10:44 51°26.905 2°54.152 6.9 86 7.3 99300 78
2004-04-19 10:45 51°26.972 2°54.528 7.5 92 7.4 99300 78
2004-04-19 10:46 51°27.037 2°54.891 7.9 101 7.3 99300 78
2004-04-19 10:47 51°27.095 2°55.259 7.2 95 7.4 99300 79
2004-04-19 10:48 51°27.159 2°55.626 7.7 85 7.4 99300 78
2004-04-19 10:49 51°27.223 2°55.991 6.5 104 7.3 99300 78
2004-04-19 10:50 51°27.288 2°56.346 8.7 82 7.3 99300 78
2004-04-19 10:51 51°27.348 2°56.722 9.5 87 7.3 99300 78
2004-04-19 10:52 51°27.407 2°57.093 6.7 95 7.3 99300 78
2004-04-19 10:53 51°27.467 2°57.46 8.2 98 7.3 99300 79
2004-04-19 10:54 51°27.524 2°57.83 7.2 89 7.3 99300 78
2004-04-19 10:55 51°27.582 2°58.199 7.8 86 7.3 99290 78
2004-04-19 10:56 51°27.64 2°58.572 8.1 93 7.3 99300 78
2004-04-19 10:57 51°27.698 2°58.949 9.6 87 7.3 99300 78
2004-04-19 10:58 51°27.757 2°59.335 6.7 91 7.2 99290 77
2004-04-19 10:59 51°27.826 2°59.708 7 96 7.3 99300 78
2004-04-19 11:00 51°27.894 3°0.092 6.5 83 7.3 99300 77
2004-04-19 11:01 51°27.96 3°0.475 7.8 96 7.3 99300 77
2004-04-19 11:02 51°28.022 3°0.86 5.4 77 7.2 99310 77
2004-04-19 11:03 51°28.059 3°1.251 7.6 90 7.3 99310 77
2004-04-19 11:04 51°28.093 3°1.639 10.4 86 7.3 99320 77
2004-04-19 11:05 51°28.13 3°2.033 8.8 88 7.3 99320 77
2004-04-19 11:06 51°28.174 3°2.418 7.8 78 7.3 99320 77
2004-04-19 11:07 51°28.216 3°2.812 7.7 71 7.3 99320 77
2004-04-19 11:08 51°28.25 3°3.126 6.6 113 7.2 99330 77
2004-04-19 11:09 51°28.311 3°3.312 7 129 7.3 99340 77
2004-04-19 11:10 51°28.341 3°3.466 7.7 75 7.3 99330 76
2004-04-19 11:11 51°28.286 3°3.546 11.4 5 7.3 99340 77
2004-04-19 11:12 51°28.256 3°3.512 9.6 317 7.3 99320 75
2004-04-19 11:13 51°28.262 3°3.497 7.3 304 7.4 99330 76
2004-04-19 11:14 51°28.278 3°3.505 8 292 7.5 99330 76
2004-04-19 11:15 51°28.294 3°3.52 8.2 298 7.5 99340 76
2004-04-19 11:16 51°28.311 3°3.535 9 295 7.5 99350 75
2004-04-19 11:17 51°28.33 3°3.553 8.2 286 7.6 99340 75
2004-04-19 11:18 51°28.351 3°3.571 9.5 277 7.6 99350 75
2004-04-19 11:19 51°28.371 3°3.583 9.3 280 7.5 99350 73
2004-04-19 11:20 51°28.393 3°3.567 10.1 306 7.6 99350 74
2004-04-19 11:21 51°28.363 3°3.509 10.6 15 7.6 99330 75
2004-04-19 11:22 51°28.265 3°3.647 11.5 51 7.6 99340 75
2004-04-19 11:23 51°28.135 3°3.948 13.8 51 7.3 99310 74
2004-04-19 11:24 51°27.996 3°4.261 13.5 42 7.2 99340 75
2004-04-19 11:25 51°27.853 3°4.57 14 33 7.2 99340 76
2004-04-19 11:26 51°27.708 3°4.872 11.3 30 7.2 99340 76
2004-04-19 11:27 51°27.577 3°5.215 12.8 51 7.1 99340 76
2004-04-19 11:28 51°27.454 3°5.559 13.2 48 7.2 99340 77
2004-04-19 11:29 51°27.333 3°5.903 12.8 54 7.1 99330 76
2004-04-19 11:30 51°27.212 3°6.25 12.8 55 7.1 99340 76
2004-04-19 11:31 51°27.087 3°6.593 13.3 49 7.2 99340 77
2004-04-19 11:32 51°26.964 3°6.94 12 52 7.2 99330 77
2004-04-19 11:33 51°26.841 3°7.288 13.3 52 7.2 99330 77
2004-04-19 11:34 51°26.718 3°7.636 13.6 47 7.2 99350 78
2004-04-19 11:35 51°26.598 3°7.972 11.6 49 7.3 99360 78
2004-04-19 11:36 51°26.567 3°8.211 9 83 7.2 99360 77
2004-04-19 11:37 51°26.526 3°8.354 9.4 34 7.3 99380 78
2004-04-19 11:38 51°26.479 3°8.382 9.5 342 7.3 99380 77
2004-04-19 11:39 51°26.47 3°8.377 8.9 313 7.4 99380 77
2004-04-19 11:40 51°26.474 3°8.378 8.3 302 7.4 99390 77
2004-04-19 11:41 51°26.479 3°8.384 8.4 327 7.5 99390 77
2004-04-19 11:42 51°26.484 3°8.398 7.5 38 7.5 99380 75
2004-04-19 11:43 51°26.491 3°8.415 8 314 7.7 99390 76
2004-04-19 11:44 51°26.499 3°8.437 9.1 309 7.6 99390 75
2004-04-19 11:45 51°26.495 3°8.431 8.9 346 7.7 99390 75
2004-04-19 11:46 51°26.418 3°8.46 11.8 43 7.8 99370 76
2004-04-19 11:47 51°26.325 3°8.736 10.4 69 7.6 99360 74
2004-04-19 11:48 51°26.258 3°9.12 12.7 55 7.6 99360 74
2004-04-19 11:49 51°26.169 3°9.499 12.5 55 7.5 99370 74
2004-04-19 11:50 51°26.072 3°9.876 11.5 57 7.5 99360 73
2004-04-19 11:51 51°25.977 3°10.254 12.3 52 7.6 99370 74
2004-04-19 11:52 51°25.881 3°10.628 10.9 57 7.6 99360 75
2004-04-19 11:53 51°25.73 3°10.936 13.9 50 7.6 99350 76
2004-04-19 11:54 51°25.562 3°11.224 13.3 44 7.6 99360 76
2004-04-19 11:55 51°25.43 3°11.561 11.6 61 7.6 99370 77
2004-04-19 11:56 51°25.396 3°11.966 8.5 74 7.6 99370 76
2004-04-19 11:57 51°25.447 3°12.372 8 82 7.5 99400 76
2004-04-19 11:58 51°25.497 3°12.778 6.3 75 7.5 99390 75
2004-04-19 11:59 51°25.532 3°13.19 8.3 83 7.6 99400 75
2004-04-19 12:00 51°25.565 3°13.598 6.4 80 7.5 99400 74
2004-04-19 12:01 51°25.591 3°14.007 6.8 77 7.6 99390 74
2004-04-19 12:02 51°25.613 3°14.414 7.4 82 7.6 99400 73
2004-04-19 12:03 51°25.638 3°14.825 6.8 79 7.6 99400 72
2004-04-19 12:04 51°25.667 3°15.237 6.8 86 7.6 99400 72
2004-04-19 12:05 51°25.7 3°15.651 5.8 83 7.6 99400 72
2004-04-19 12:06 51°25.725 3°16.07 5.6 81 7.6 99410 72
2004-04-19 12:07 51°25.752 3°16.488 4.4 77 7.7 99410 72
2004-04-19 12:08 51°25.781 3°16.908 4.3 76 7.7 99420 73
2004-04-19 12:09 51°25.803 3°17.282 6 97 7.8 99410 74
2004-04-19 12:10 51°25.787 3°17.548 3.7 112 7.8 99410 74
2004-04-19 12:11 51°25.846 3°17.718 3 250 7.9 99420 74
2004-04-19 12:12 51°25.908 3°17.73 7 301 8 99420 74
2004-04-19 12:13 51°25.926 3°17.714 6.5 311 8.1 99420 73
2004-04-19 12:14 51°25.934 3°17.715 5.9 318 8.2 99420 72
2004-04-19 12:15 51°25.941 3°17.724 5.8 318 8.3 99410 71
2004-04-19 12:16 51°25.946 3°17.741 6.1 331 8.3 99410 71
2004-04-19 12:17 51°25.95 3°17.764 6.1 338 8.4 99410 69
2004-04-19 12:18 51°25.953 3°17.791 4.8 348 8.4 99410 67
2004-04-19 12:19 51°25.952 3°17.817 5.3 352 8.5 99420 66
2004-04-19 12:20 51°25.889 3°17.763 10.2 5 8.5 99420 66
2004-04-19 12:21 51°25.743 3°17.587 12.2 6 8.5 99400 65
2004-04-19 12:22 51°25.583 3°17.379 11.9 6 8.4 99400 66
2004-04-19 12:23 51°25.423 3°17.177 11.7 1 8.4 99400 65
2004-04-19 12:24 51°25.276 3°16.964 11.6 360 8.4 99400 67
2004-04-19 12:25 51°25.129 3°16.746 11.6 5 8.4 99390 66
2004-04-19 12:26 51°24.981 3°16.531 10.8 5 8.5 99400 67
2004-04-19 12:27 51°24.836 3°16.311 11.6 2 8.5 99410 67
2004-04-19 12:28 51°24.687 3°16.088 11.2 2 8.5 99400 67
2004-04-19 12:29 51°24.539 3°15.884 10.2 5 8.5 99400 68
2004-04-19 12:30 51°24.39 3°15.68 10.3 1 8.5 99400 67
2004-04-19 12:31 51°24.244 3°15.468 10.2 5 8.5 99410 68
2004-04-19 12:32 51°24.096 3°15.254 10.1 360 8.5 99410 68
2004-04-19 12:33 51°23.949 3°15.039 9.8 4 8.6 99400 67
2004-04-19 12:34 51°23.802 3°14.82 9.1 1 8.6 99410 66
2004-04-19 12:35 51°23.653 3°14.606 9.7 1 8.6 99400 66
2004-04-19 12:36 51°23.507 3°14.395 9.5   8.6 99410 67
2004-04-19 12:37 51°23.361 3°14.182 9.7 2 8.6 99400 67
2004-04-19 12:38 51°23.214 3°13.967 9.9 354 8.7 99400 67
2004-04-19 12:39 51°23.067 3°13.756 9.9 351 8.8 99400 67
2004-04-19 12:40 51°22.923 3°13.546 8.5 343 8.8 99390 66
2004-04-19 12:41 51°22.812 3°13.402 9.5 349 8.9 99380 66
2004-04-19 12:42 51°22.702 3°13.32 6.6 342 9 99390 67
2004-04-19 12:43 51°22.67 3°13.276 4.5 296 9 99400 66
2004-04-19 12:44 51°22.679 3°13.275 3.4 280 9 99410 66
2004-04-19 12:45 51°22.695 3°13.289 6.6 276 9 99410 67
2004-04-19 12:46 51°22.712 3°13.314 4.8 305 9 99410 66
2004-04-19 12:47 51°22.728 3°13.348 6.1 289 9.1 99410 66
2004-04-19 12:48 51°22.742 3°13.385 7.6 313 9.2 99410 67
2004-04-19 12:49 51°22.757 3°13.432 5.6 309 9.1 99410 66
2004-04-19 12:50 51°22.772 3°13.466 5.6 328 9.2 99410 66
2004-04-19 12:51 51°22.739 3°13.316 11 348 9.2 99390 65
2004-04-19 12:52 51°22.672 3°13.036 12.3 356 9.2 99380 65
2004-04-19 12:53 51°22.65 3°12.731 11.6 352 9.2 99390 66
2004-04-19 12:54 51°22.633 3°12.423 11.6 342 9.2 99390 66
2004-04-19 12:55 51°22.604 3°12.12 10.8 343 9.1 99380 66
2004-04-19 12:56 51°22.575 3°11.817 10.9 343 9.1 99370 66
2004-04-19 12:57 51°22.543 3°11.512 15.4 343 9.1 99380 67
2004-04-19 12:58 51°22.503 3°11.211 16.1 343 8.9 99370 69
2004-04-19 12:59 51°22.466 3°10.912 18 341 8.6 99370 71
2004-04-19 13:00 51°22.432 3°10.621 18.1 336 8.2 99360 72
2004-04-19 13:01 51°22.401 3°10.322 16.6 340 8 99370 73
2004-04-19 13:02 51°22.361 3°10.03 16.1 339 7.8 99380 73
2004-04-19 13:03 51°22.325 3°9.731 13.4 340 7.5 99390 74
2004-04-19 13:04 51°22.279 3°9.431 12.5 342 7.4 99400 75
2004-04-19 13:05 51°22.23 3°9.128 10.6 344 7.4 99410 76
2004-04-19 13:06 51°22.172 3°8.833 9.3 342 7.3 99410 74
2004-04-19 13:07 51°22.12 3°8.534 10.3 338 7.5 99410 74
2004-04-19 13:08 51°22.068 3°8.231 10.4 338 7.7 99400 72
2004-04-19 13:09 51°22.015 3°7.927 10.7 338 7.8 99410 71
2004-04-19 13:10 51°21.962 3°7.623 10.8 339 8 99410 72
2004-04-19 13:11 51°21.91 3°7.323 11.2 339 8.1 99410 71
2004-04-19 13:12 51°21.86 3°7.022 12.4 341 8.1 99410 70
2004-04-19 13:13 51°21.811 3°6.722 12.5 346 8.2 99410 69
2004-04-19 13:14 51°21.756 3°6.428 12.8 351 8.4 99400 67
2004-04-19 13:15 51°21.694 3°6.141 12.3 345 8.5 99410 66
2004-04-19 13:16 51°21.632 3°5.85 12.1 352 8.5 99420 65
2004-04-19 13:17 51°21.569 3°5.558 12.3 352 8.6 99420 66
2004-04-19 13:18 51°21.507 3°5.264 11.9 351 8.6 99410 65
2004-04-19 13:19 51°21.445 3°4.967 12.5 348 8.6 99420 65
2004-04-19 13:20 51°21.383 3°4.668 12.8 350 8.7 99410 65
2004-04-19 13:21 51°21.322 3°4.367 12.7 349 8.8 99420 65
2004-04-19 13:22 51°21.261 3°4.066 13.5 346 8.8 99420 66
2004-04-19 13:23 51°21.201 3°3.763 12.5 343 8.8 99410 66
2004-04-19 13:24 51°21.141 3°3.458 14.1 341 8.7 99410 66
2004-04-19 13:25 51°21.08 3°3.153 13 340 8.7 99410 67
2004-04-19 13:26 51°21.019 3°2.848 12.6 343 8.7 99420 67
2004-04-19 13:27 51°20.96 3°2.541 17.2 327 8.7 99410 68
2004-04-19 13:28 51°20.904 3°2.232 16.7 329 8.4 99380 68
2004-04-19 13:29 51°20.848 3°1.924 16.6 328 8 99390 70
2004-04-19 13:30 51°20.784 3°1.62 17.3 322 7.7 99400 72
2004-04-19 13:31 51°20.721 3°1.315 15.9 324 7.5 99410 73
2004-04-19 13:32 51°20.658 3°1.012 13.7 317 7.3 99400 74
2004-04-19 13:33 51°20.597 3°0.708 15.5 328 7.2 99390 75
2004-04-19 13:34 51°20.536 3°0.404 15.4 321 7.2 99400 75
2004-04-19 13:35 51°20.474 3°0.1 14 320 7.1 99400 75
2004-04-19 13:36 51°20.413 2°59.795 15 317 7.1 99410 76
2004-04-19 13:37 51°20.351 2°59.492 13.7 316 7.1 99400 75
2004-04-19 13:38 51°20.287 2°59.187 12.9 317 7.1 99420 76
2004-04-19 13:39 51°20.223 2°58.879 13.9 317 7.1 99410 76
2004-04-19 13:40 51°20.157 2°58.572 13 318 7 99420 77
2004-04-19 13:41 51°20.09 2°58.262 12.8 41 7 99410 77
2004-04-19 13:42 51°20.024 2°57.951 12.1 318 7 99420 76
2004-04-19 13:43 51°19.956 2°57.637 11.7 317 7 99410 77
2004-04-19 13:44 51°19.888 2°57.321 11.6 317 7 99420 77
2004-04-19 13:45 51°19.82 2°57.007 12.9 318 7 99430 77
2004-04-19 13:46 51°19.752 2°56.692 10.8 318 7 99420 77
2004-04-19 13:47 51°19.685 2°56.378 11.6 316 7 99430 77
2004-04-19 13:48 51°19.618 2°56.063 9.9 325 7 99430 77
2004-04-19 13:49 51°19.548 2°55.747 9.8 317 7.1 99430 77
2004-04-19 13:50 51°19.479 2°55.429 10.2 326 7.1 99430 77
2004-04-19 13:51 51°19.411 2°55.11 9.9 322 7.2 99430 77
2004-04-19 13:52 51°19.342 2°54.795 10 329 7.3 99430 76
2004-04-19 13:53 51°19.272 2°54.477 9.5 329 7.3 99430 75
2004-04-19 13:54 51°19.202 2°54.162 10.3 326 7.4 99440 75
2004-04-19 13:55 51°19.135 2°53.85 9 334 7.4 99430 74
2004-04-19 13:56 51°19.062 2°53.527 9.3 329 7.5 99440 74
2004-04-19 13:57 51°18.991 2°53.211 9.4 327 7.6 99440 74
2004-04-19 13:58 51°18.918 2°52.894 9.6 325 7.6 99440 73
2004-04-19 13:59 51°18.847 2°52.573 8.4 329 7.7 99440 73
2004-04-19 14:00 51°18.777 2°52.253 9.9 324 7.8 99440 73
2004-04-19 14:01 51°18.705 2°51.934 10 331 7.8 99440 72
2004-04-19 14:02 51°18.633 2°51.617 9.6 331 7.9 99430 71
2004-04-19 14:03 51°18.564 2°51.306 8.5 331 7.9 99430 70
2004-04-19 14:04 51°18.513 2°51.116 6.3 41 8 99450 69
2004-04-19 14:05 51°18.494 2°51.011 4.6 298 8.1 99460 69
2004-04-19 14:06 51°18.505 2°50.996 3.9 271 8.2 99470 68
2004-04-19 14:07 51°18.522 2°50.995 4.6 261 8.2 99470 68
2004-04-19 14:08 51°18.54 2°50.991 4.7 271 8.2 99470 67
2004-04-19 14:09 51°18.552 2°50.983 4.2 289 8.2 99470 67
2004-04-19 14:10 51°18.556 2°50.98 4.9 228 8.3 99470 68
2004-04-19 14:11 51°18.553 2°50.984 5 346 8.3 99460 68
2004-04-19 14:12 51°18.454 2°51.097 10.8 16 8.3 99470 67
2004-04-19 14:13 51°18.276 2°51.305 11.5 15 8.4 99470 69
2004-04-19 14:14 51°18.102 2°51.528 10.3 14 8.4 99460 68
2004-04-19 14:15 51°17.931 2°51.756 10.6 13 8.4 99450 69
2004-04-19 14:16 51°17.761 2°51.988 10.3 14 8.5 99460 69
2004-04-19 14:17 51°17.59 2°52.219 10.8 12 8.5 99460 69
2004-04-19 14:18 51°17.418 2°52.45 10.6 17 8.5 99450 69
2004-04-19 14:19 51°17.247 2°52.68 10.2 19 8.5 99450 69
2004-04-19 14:20 51°17.083 2°52.934 10.1 22 8.6 99460 69
2004-04-19 14:21 51°16.93 2°53.203 10.6 19 8.6 99460 70
2004-04-19 14:22 51°16.776 2°53.483 10.6 18 8.7 99450 69
2004-04-19 14:23 51°16.622 2°53.759 10 19 8.7 99450 69
2004-04-19 14:24 51°16.466 2°54.031 10.1 21 8.8 99450 68
2004-04-19 14:25 51°16.367 2°54.254 6.6 38 8.8 99460 68
2004-04-19 14:26 51°16.308 2°54.335 5.3 3 8.8 99460 68
2004-04-19 14:27 51°16.283 2°54.344 4.1 354 8.8 99470 68
2004-04-19 14:28 51°16.281 2°54.356 3.8 356 8.8 99470 69
2004-04-19 14:29 51°16.28 2°54.37 2.9 356 8.8 99470 69
2004-04-19 14:30 51°16.283 2°54.384 2.9 347 8.8 99470 69
2004-04-19 14:31 51°16.286 2°54.399 3 345 8.9 99470 69
2004-04-19 14:32 51°16.29 2°54.414 2.5 331 8.9 99470 70
2004-04-19 14:33 51°16.271 2°54.415 4.8 358 8.9 99470 70
2004-04-19 14:34 51°16.114 2°54.397 8.3 5 8.8 99460 70
2004-04-19 14:35 51°15.897 2°54.405 8 5 8.9 99460 70
2004-04-19 14:36 51°15.678 2°54.428 7.9 10 8.9 99460 70
2004-04-19 14:37 51°15.457 2°54.46 7 8 8.9 99460 70
2004-04-19 14:38 51°15.237 2°54.502 8.1 9 8.9 99450 71
2004-04-19 14:39 51°15.024 2°54.587 10 13 9 99450 69
2004-04-19 14:40 51°14.81 2°54.681 11 17 9.2 99450 68
2004-04-19 14:41 51°14.606 2°54.822 11.3 12 9.4 99440 67
2004-04-19 14:42 51°14.418 2°55.016 12 28 9.5 99420 65
2004-04-19 14:43 51°14.296 2°55.208 7.8 43 9.6 99440 63
2004-04-19 14:44 51°14.223 2°55.336 5.4 24 9.8 99450 62
2004-04-19 14:45 51°14.147 2°55.436 10.4 38 9.9 99450 64
2004-04-19 14:46 51°14.053 2°55.5 8.9 42 10 99460 66
2004-04-19 14:47 51°13.954 2°55.561 6.9 54 10 99460 59
2004-04-19 14:48 51°13.85 2°55.627 9.9 13 10 99450 55
2004-04-19 14:49 51°13.752 2°55.711 7.3 27 10.1 99470 54
2004-04-19 14:50 51°13.678 2°55.844 5.3 54 10.1 99470 52
2004-04-19 14:51 51°13.636 2°55.957 5.9 68 10.1 99470 53
2004-04-19 14:52 51°13.609 2°56.053 3.6 67 10.2 99470 52
2004-04-19 14:53 51°13.598 2°56.09 3.7 135 10.2 99470 54
2004-04-19 14:54 51°13.596 2°56.095 3.3 139 10.2 99470 54